createdAt,value
2022-09-17T00:01:47.566Z,61.45
2022-09-17T00:04:50.510Z,61.47
2022-09-17T00:07:53.222Z,61.45
2022-09-17T00:10:55.860Z,61.51
2022-09-17T00:14:00.224Z,61.17
2022-09-17T00:17:03.211Z,61.50
2022-09-17T00:20:09.001Z,61.12
2022-09-17T00:23:12.783Z,61.28
2022-09-17T00:26:15.563Z,61.59
2022-09-17T00:29:18.277Z,61.29
2022-09-17T00:32:21.459Z,61.68
2022-09-17T00:35:26.289Z,62.53
2022-09-17T00:38:29.247Z,62.63
2022-09-17T00:41:32.616Z,62.13
2022-09-17T00:44:40.707Z,63.28
2022-09-17T00:47:45.853Z,63.38
2022-09-17T00:50:48.444Z,63.52
2022-09-17T00:53:51.160Z,63.54
2022-09-17T00:56:54.026Z,63.44
2022-09-17T00:59:56.768Z,63.97
2022-09-17T01:02:59.506Z,64.82
2022-09-17T01:06:08.761Z,64.12
2022-09-17T01:09:18.532Z,63.33
2022-09-17T01:12:31.213Z,63.06
2022-09-17T01:15:38.308Z,62.96
2022-09-17T01:18:46.951Z,63.03
2022-09-17T01:21:54.723Z,64.96
2022-09-17T01:25:07.302Z,64.42
2022-09-17T01:28:26.751Z,63.65
2022-09-17T01:31:35.377Z,64.51
2022-09-17T01:34:41.746Z,65.84
2022-09-17T01:37:48.617Z,66.96
2022-09-17T01:40:54.366Z,66.09
2022-09-17T01:43:59.310Z,66.24
2022-09-17T01:47:05.007Z,66.61
2022-09-17T01:50:11.322Z,66.62
2022-09-17T01:53:14.434Z,66.45
2022-09-17T01:56:19.013Z,68.20
2022-09-17T01:59:22.778Z,68.09
2022-09-17T02:02:27.847Z,68.34
2022-09-17T02:05:36.030Z,68.30
2022-09-17T02:08:41.721Z,68.17
2022-09-17T02:11:48.726Z,67.90
2022-09-17T02:14:52.677Z,67.39
2022-09-17T02:17:58.935Z,68.14
2022-09-17T02:21:05.658Z,68.64
2022-09-17T02:24:12.081Z,68.42
2022-09-17T02:27:20.800Z,68.53
2022-09-17T02:30:24.017Z,70.61
2022-09-17T02:33:28.211Z,70.13
2022-09-17T02:36:31.739Z,69.45
2022-09-17T02:39:34.335Z,68.97
2022-09-17T02:42:43.312Z,69.57
2022-09-17T02:45:51.288Z,69.54
2022-09-17T02:49:10.739Z,68.25
2022-09-17T02:52:19.355Z,68.78
2022-09-17T02:55:28.070Z,67.88
2022-09-17T02:58:32.397Z,68.00
2022-09-17T03:01:39.396Z,67.10
2022-09-17T03:04:42.411Z,68.60
2022-09-17T03:07:45.393Z,68.94
2022-09-17T03:10:49.785Z,67.02
2022-09-17T03:13:52.633Z,66.31
2022-09-17T03:16:55.382Z,66.98
2022-09-17T03:19:57.989Z,67.66
2022-09-17T03:23:00.718Z,67.79
2022-09-17T03:26:03.368Z,69.36
2022-09-17T03:29:06.040Z,69.47
2022-09-17T03:32:08.869Z,69.85
2022-09-17T03:35:11.529Z,69.39
2022-09-17T03:38:14.376Z,68.06
2022-09-17T03:41:17.495Z,70.83
2022-09-17T03:44:22.391Z,69.55
2022-09-17T03:47:25.085Z,70.34
2022-09-17T03:50:27.858Z,69.11
2022-09-17T03:53:31.234Z,69.95
2022-09-17T03:56:34.000Z,69.03
2022-09-17T03:59:36.641Z,68.80
2022-09-17T04:02:39.431Z,71.05
2022-09-17T04:05:42.074Z,71.37
2022-09-17T04:08:47.481Z,69.80
2022-09-17T04:11:50.137Z,71.04
2022-09-17T04:14:53.772Z,70.23
2022-09-17T04:17:57.561Z,69.16
2022-09-17T04:21:00.170Z,71.67
2022-09-17T04:24:02.971Z,70.42
2022-09-17T04:27:05.622Z,70.57
2022-09-17T04:30:11.760Z,68.50
2022-09-17T04:33:14.517Z,68.84
2022-09-17T04:36:17.399Z,70.69
2022-09-17T04:39:20.059Z,69.33
2022-09-17T04:42:22.764Z,69.52
2022-09-17T04:45:25.583Z,69.44
2022-09-17T04:48:28.236Z,68.62
2022-09-17T04:51:31.086Z,68.92
2022-09-17T04:54:34.776Z,67.95
2022-09-17T04:57:37.494Z,67.81
2022-09-17T05:00:41.165Z,67.42
2022-09-17T05:03:45.156Z,67.73
2022-09-17T05:06:47.857Z,66.44
2022-09-17T05:09:50.469Z,65.61
2022-09-17T05:12:53.714Z,65.87
2022-09-17T05:15:56.721Z,66.57
2022-09-17T05:18:59.525Z,67.94
2022-09-17T05:22:02.650Z,68.48
2022-09-17T05:25:08.291Z,68.02
2022-09-17T05:28:10.977Z,67.19
2022-09-17T05:31:13.886Z,66.84
2022-09-17T05:34:16.596Z,66.52
2022-09-17T05:37:19.185Z,67.92
2022-09-17T05:40:22.044Z,66.73
2022-09-17T05:43:24.658Z,66.41
2022-09-17T05:46:27.157Z,66.39
2022-09-17T05:49:29.967Z,65.07
2022-09-17T05:52:32.625Z,64.58
2022-09-17T05:55:35.286Z,64.12
2022-09-17T05:58:38.097Z,64.09
2022-09-17T06:01:40.958Z,65.08
2022-09-17T06:04:43.832Z,64.95
2022-09-17T06:07:47.401Z,65.20
2022-09-17T06:10:50.350Z,64.87
2022-09-17T06:13:53.701Z,66.42
2022-09-17T06:16:57.485Z,66.45
2022-09-17T06:20:00.289Z,68.32
2022-09-17T06:23:02.969Z,66.83
2022-09-17T06:26:06.539Z,66.80
2022-09-17T06:29:09.727Z,67.40
2022-09-17T06:32:15.062Z,65.89
2022-09-17T06:35:20.517Z,65.06
2022-09-17T06:38:23.759Z,65.67
2022-09-17T06:41:26.673Z,65.61
2022-09-17T06:44:29.328Z,66.23
2022-09-17T06:47:31.933Z,65.53
2022-09-17T06:50:35.776Z,65.56
2022-09-17T06:53:41.026Z,66.57
2022-09-17T06:56:45.438Z,68.35
2022-09-17T06:59:49.542Z,67.61
2022-09-17T07:02:58.570Z,68.08
2022-09-17T07:06:02.480Z,68.02
2022-09-17T07:09:10.888Z,68.99
2022-09-17T07:12:13.836Z,69.35
2022-09-17T07:15:16.617Z,69.69
2022-09-17T07:18:21.758Z,70.00
2022-09-17T07:21:24.435Z,69.38
2022-09-17T07:24:32.034Z,71.07
2022-09-17T07:27:35.565Z,69.70
2022-09-17T07:30:38.275Z,70.35
2022-09-17T07:33:41.013Z,70.15
2022-09-17T07:36:44.266Z,69.64
2022-09-17T07:39:46.912Z,70.08
2022-09-17T07:42:50.396Z,69.43
2022-09-17T07:45:56.746Z,71.09
2022-09-17T07:48:59.595Z,70.06
2022-09-17T07:52:05.782Z,70.17
2022-09-17T07:55:10.818Z,69.59
2022-09-17T07:58:13.477Z,71.68
2022-09-17T08:01:17.129Z,70.55
2022-09-17T08:04:22.486Z,70.58
2022-09-17T08:07:25.063Z,70.15
2022-09-17T08:10:27.900Z,68.96
2022-09-17T08:13:30.641Z,67.89
2022-09-17T08:16:33.876Z,67.09
2022-09-17T08:19:36.525Z,66.54
2022-09-17T08:22:39.238Z,66.16
2022-09-17T08:25:41.778Z,66.97
2022-09-17T08:28:45.624Z,67.47
2022-09-17T08:31:48.445Z,67.85
2022-09-17T08:34:57.998Z,67.45
2022-09-17T08:38:00.814Z,67.05
2022-09-17T08:41:13.084Z,68.00
2022-09-17T08:44:21.228Z,66.89
2022-09-17T08:47:27.642Z,65.34
2022-09-17T08:50:32.025Z,63.89
2022-09-17T08:53:42.249Z,64.08
2022-09-17T08:56:47.618Z,63.95
2022-09-17T08:59:55.882Z,63.86
2022-09-17T09:03:10.315Z,63.36
2022-09-17T09:06:13.484Z,62.95
2022-09-17T09:09:18.353Z,63.72
2022-09-17T09:12:24.034Z,62.44
2022-09-17T09:15:32.390Z,62.98
2022-09-17T09:18:36.369Z,62.30
2022-09-17T09:21:44.735Z,61.72
2022-09-17T09:24:52.158Z,60.96
2022-09-17T09:28:01.628Z,59.72
2022-09-17T09:31:12.236Z,59.79
2022-09-17T09:34:16.050Z,59.50
2022-09-17T09:37:21.618Z,59.03
2022-09-17T09:40:30.338Z,62.90
2022-09-17T09:44:02.220Z,61.39
2022-09-17T09:47:15.200Z,59.38
2022-09-17T09:50:42.985Z,59.75
2022-09-17T09:53:56.420Z,60.77
2022-09-17T09:57:01.852Z,62.01
2022-09-17T10:00:22.758Z,56.92
2022-09-17T10:03:26.967Z,57.97
2022-09-17T10:06:31.188Z,58.88
2022-09-17T10:09:34.677Z,58.39
2022-09-17T10:12:37.827Z,60.33
2022-09-17T10:15:40.541Z,60.25
2022-09-17T10:18:43.608Z,61.46
2022-09-17T10:21:46.192Z,58.69
2022-09-17T10:24:51.442Z,60.85
2022-09-17T10:27:54.838Z,60.11
2022-09-17T10:30:58.105Z,59.87
2022-09-17T10:34:02.198Z,61.59
2022-09-17T10:37:04.758Z,58.13
2022-09-17T10:40:24.922Z,58.01
2022-09-17T10:43:27.603Z,57.42
2022-09-17T10:46:33.236Z,59.11
2022-09-17T10:49:38.550Z,56.55
2022-09-17T10:52:46.959Z,54.57
2022-09-17T10:55:53.004Z,56.30
2022-09-17T10:58:58.220Z,57.02
2022-09-17T11:02:08.487Z,56.35
2022-09-17T11:05:27.423Z,56.42
2022-09-17T11:08:34.342Z,55.57
2022-09-17T11:11:47.524Z,54.42
2022-09-17T11:14:51.419Z,55.30
2022-09-17T11:18:01.334Z,55.41
2022-09-17T11:21:12.828Z,55.54
2022-09-17T11:24:29.429Z,56.48
2022-09-17T11:27:37.593Z,57.44
2022-09-17T11:30:48.266Z,58.38
2022-09-17T11:34:00.031Z,58.62
2022-09-17T11:37:05.741Z,59.78
2022-09-17T11:40:13.287Z,61.89
2022-09-17T11:43:20.637Z,62.53
2022-09-17T11:46:25.335Z,62.55
2022-09-17T11:49:33.207Z,60.00
2022-09-17T11:52:41.107Z,58.41
2022-09-17T11:55:48.260Z,58.82
2022-09-17T11:58:53.753Z,58.68
2022-09-17T12:02:03.061Z,58.96
2022-09-17T12:05:11.099Z,60.25
2022-09-17T12:08:17.931Z,61.00
2022-09-17T12:11:25.178Z,61.86
2022-09-17T12:14:30.854Z,61.92
2022-09-17T12:17:37.714Z,60.82
2022-09-17T12:20:41.899Z,58.43
2022-09-17T12:23:48.078Z,59.30
2022-09-17T12:27:20.642Z,58.53
2022-09-17T12:30:25.854Z,59.54
2022-09-17T12:33:33.555Z,57.53
2022-09-17T12:36:42.120Z,56.16
2022-09-17T12:39:55.754Z,57.06
2022-09-17T12:43:05.738Z,56.75
2022-09-17T12:46:15.596Z,59.04
2022-09-17T12:49:31.394Z,60.68
2022-09-17T12:52:42.634Z,62.81
2022-09-17T12:55:50.948Z,61.73
2022-09-17T12:59:01.841Z,60.41
2022-09-17T13:02:15.267Z,59.97
2022-09-17T13:05:36.319Z,60.34
2022-09-17T13:08:53.456Z,62.13
2022-09-17T13:12:11.218Z,62.43
2022-09-17T13:15:34.721Z,61.58
2022-09-17T13:18:41.779Z,61.17
2022-09-17T13:21:53.962Z,61.37
2022-09-17T13:25:03.129Z,60.88
2022-09-17T13:28:07.275Z,60.20
2022-09-17T13:31:11.454Z,59.42
2022-09-17T13:34:29.089Z,61.48
2022-09-17T13:37:32.586Z,62.41
2022-09-17T13:40:36.792Z,61.55
2022-09-17T13:43:44.785Z,61.13
2022-09-17T13:46:47.724Z,61.51
2022-09-17T13:49:53.538Z,60.74
2022-09-17T13:52:56.895Z,59.22
2022-09-17T13:56:01.277Z,60.38
2022-09-17T13:59:07.789Z,60.57
2022-09-17T14:02:30.044Z,60.25
2022-09-17T14:05:35.450Z,61.37
2022-09-17T14:08:49.301Z,62.22
2022-09-17T14:11:51.790Z,63.11
2022-09-17T14:14:54.697Z,58.83
2022-09-17T14:17:57.819Z,58.82
2022-09-17T14:27:07.757Z,55.48
2022-09-17T14:32:32.478Z,54.45
2022-09-17T14:35:38.933Z,54.63
2022-09-17T14:38:46.606Z,54.89
2022-09-17T14:41:52.781Z,55.78
2022-09-17T14:45:00.286Z,54.35
2022-09-17T14:48:27.294Z,54.63
2022-09-17T14:51:32.567Z,55.22
2022-09-17T14:54:37.952Z,54.32
2022-09-17T14:57:45.196Z,53.60
2022-09-17T15:00:54.027Z,52.50
2022-09-17T15:04:12.808Z,53.20
2022-09-17T15:07:18.069Z,53.23
2022-09-17T15:10:24.210Z,53.69
2022-09-17T15:13:30.996Z,54.44
2022-09-17T15:16:36.868Z,54.50
2022-09-17T15:19:44.019Z,53.75
2022-09-17T15:22:52.571Z,52.84
2022-09-17T15:25:59.663Z,53.11
2022-09-17T15:29:06.681Z,53.21
2022-09-17T15:32:14.023Z,53.14
2022-09-17T15:35:20.821Z,52.69
2022-09-17T15:38:28.130Z,50.73
2022-09-17T15:41:34.756Z,49.51
2022-09-17T15:44:41.356Z,50.23
2022-09-17T15:47:56.924Z,50.75
2022-09-17T15:51:03.063Z,51.37
2022-09-17T15:54:28.766Z,52.02
2022-09-17T15:57:34.374Z,53.70
2022-09-17T16:00:39.879Z,55.06
2022-09-17T16:04:03.192Z,55.57
2022-09-17T16:07:28.001Z,56.11
2022-09-17T16:10:35.556Z,56.90
2022-09-17T16:13:41.198Z,56.71
2022-09-17T16:16:48.398Z,57.46
2022-09-17T16:19:54.932Z,58.45
2022-09-17T16:23:00.357Z,59.34
2022-09-17T16:26:06.398Z,59.92
2022-09-17T16:29:14.232Z,60.88
2022-09-17T16:32:19.824Z,61.49
2022-09-17T16:35:26.875Z,62.12
2022-09-17T16:38:32.611Z,62.29
2022-09-17T16:41:38.518Z,60.43
2022-09-17T16:44:44.178Z,58.45
2022-09-17T16:47:49.853Z,60.47
2022-09-17T16:50:55.412Z,61.52
2022-09-17T16:54:02.264Z,62.61
2022-09-17T16:57:08.569Z,61.41
2022-09-17T17:00:34.722Z,59.67
2022-09-17T17:04:01.087Z,60.12
2022-09-17T17:07:27.113Z,61.55
2022-09-17T17:10:53.267Z,62.86
2022-09-17T17:14:19.765Z,61.81
2022-09-17T17:17:45.970Z,60.99
2022-09-17T17:21:13.609Z,60.88
2022-09-17T17:24:39.748Z,61.68
2022-09-17T17:28:05.793Z,61.94
2022-09-17T17:31:32.487Z,64.54
2022-09-17T17:35:00.880Z,66.62
2022-09-17T17:39:02.545Z,65.88
2022-09-17T17:42:08.425Z,64.37
2022-09-17T17:45:14.884Z,64.64
2022-09-17T17:48:20.523Z,64.93
2022-09-17T17:51:27.361Z,63.17
2022-09-17T17:54:33.425Z,62.98
2022-09-17T17:57:39.281Z,63.62
2022-09-17T18:00:45.059Z,64.88
2022-09-17T18:03:51.007Z,65.14
2022-09-17T18:06:56.835Z,62.15
2022-09-17T18:10:02.481Z,61.76
2022-09-17T18:13:08.000Z,63.82
2022-09-17T18:16:17.606Z,64.42
2022-09-17T18:19:23.230Z,64.08
2022-09-17T18:22:28.853Z,64.86
2022-09-17T18:25:34.377Z,66.17
2022-09-17T18:28:39.998Z,66.50
2022-09-17T18:31:45.985Z,65.83
2022-09-17T18:34:51.793Z,65.41
2022-09-17T18:38:01.531Z,65.04
2022-09-17T18:41:10.181Z,64.27
2022-09-17T18:44:15.939Z,63.65
2022-09-17T18:47:21.361Z,63.01
2022-09-17T18:50:26.867Z,63.43
2022-09-17T18:53:35.614Z,63.93
2022-09-17T18:56:42.222Z,63.57
2022-09-17T18:59:47.530Z,62.93
2022-09-17T19:02:52.782Z,62.58
2022-09-17T19:06:04.829Z,62.44
2022-09-17T19:09:11.884Z,62.92
2022-09-17T19:12:17.521Z,62.26
2022-09-17T19:15:24.181Z,62.15
2022-09-17T19:18:30.130Z,62.32
2022-09-17T19:21:35.607Z,59.95
2022-09-17T19:24:41.114Z,58.54
2022-09-17T19:27:46.778Z,58.76
2022-09-17T19:30:52.808Z,61.08
2022-09-17T19:33:59.895Z,61.53
2022-09-17T19:37:05.717Z,66.05
2022-09-17T19:40:12.126Z,66.43
2022-09-17T19:43:19.747Z,66.89
2022-09-17T19:46:26.847Z,65.04
2022-09-17T19:49:32.383Z,63.95
2022-09-17T19:52:39.848Z,63.85
2022-09-17T19:55:46.128Z,63.52
2022-09-17T19:58:52.020Z,64.49
2022-09-17T20:01:57.638Z,64.33
2022-09-17T20:05:03.222Z,63.91
2022-09-17T20:08:10.879Z,63.18
2022-09-17T20:11:17.425Z,63.07
2022-09-17T20:14:22.863Z,63.19
2022-09-17T20:17:29.550Z,62.17
2022-09-17T20:20:35.004Z,62.22
2022-09-17T20:23:40.585Z,63.61
2022-09-17T20:26:46.181Z,63.49
2022-09-17T20:29:51.588Z,64.44
2022-09-17T20:32:59.574Z,64.21
2022-09-17T20:36:06.200Z,64.99
2022-09-17T20:39:17.880Z,64.31
2022-09-17T20:42:28.211Z,63.43
2022-09-17T20:45:33.876Z,63.48
2022-09-17T20:48:39.557Z,62.32
2022-09-17T20:51:46.567Z,62.22
2022-09-17T20:54:52.255Z,62.12
2022-09-17T20:57:57.606Z,62.07
2022-09-17T21:01:07.626Z,61.13
2022-09-17T21:04:14.377Z,61.01
2022-09-17T21:07:19.680Z,61.37
2022-09-17T21:10:25.295Z,61.20
2022-09-17T21:13:30.513Z,61.53
2022-09-17T21:16:36.126Z,61.09
2022-09-17T21:19:41.567Z,60.99
2022-09-17T21:22:49.367Z,62.53
2022-09-17T21:26:02.498Z,62.60
2022-09-17T21:29:08.173Z,62.32
2022-09-17T21:32:13.641Z,62.01
2022-09-17T21:35:19.154Z,62.04
2022-09-17T21:38:24.641Z,62.62
2022-09-17T21:41:30.346Z,62.36
2022-09-17T21:44:35.812Z,63.00
2022-09-17T21:47:41.175Z,62.74
2022-09-17T21:50:46.425Z,62.50
2022-09-17T21:53:52.990Z,63.24
2022-09-17T21:57:00.023Z,63.47
2022-09-17T22:00:07.938Z,64.30
2022-09-17T22:03:14.225Z,64.82
2022-09-17T22:06:21.438Z,64.18
2022-09-17T22:09:27.623Z,64.53
2022-09-17T22:12:33.106Z,63.56
2022-09-17T22:15:38.461Z,64.12
2022-09-17T22:18:47.001Z,64.14
2022-09-17T22:21:53.419Z,63.36
2022-09-17T22:24:59.290Z,63.20
2022-09-17T22:28:20.939Z,63.90
2022-09-17T22:31:26.896Z,62.88
2022-09-17T22:34:32.280Z,63.22
2022-09-17T22:37:37.643Z,62.53
2022-09-17T22:40:43.090Z,63.21
2022-09-17T22:43:48.470Z,61.83
2022-09-17T22:46:54.128Z,62.17
2022-09-17T22:49:59.609Z,61.52
2022-09-17T22:53:05.103Z,62.49
2022-09-17T22:56:12.012Z,61.63
2022-09-17T22:59:18.285Z,61.95
2022-09-17T23:02:24.661Z,62.26
2022-09-17T23:05:30.144Z,62.11
2022-09-17T23:08:38.245Z,62.92
2022-09-17T23:11:43.709Z,62.93
2022-09-17T23:14:49.075Z,63.29
2022-09-17T23:17:54.769Z,63.02
2022-09-17T23:21:01.802Z,63.34
2022-09-17T23:24:07.189Z,64.01
2022-09-17T23:27:12.569Z,62.75
2022-09-17T23:30:18.250Z,62.71
2022-09-17T23:33:23.830Z,62.60
2022-09-17T23:36:30.338Z,62.38
2022-09-17T23:39:35.915Z,62.63
2022-09-17T23:42:41.432Z,62.71
2022-09-17T23:45:47.036Z,62.28
2022-09-17T23:48:53.687Z,62.59
2022-09-17T23:51:59.136Z,62.81
2022-09-17T23:55:04.727Z,63.09
2022-09-17T23:58:10.221Z,63.00
